Time;durP1;ratioP1;P1;durP2;ratioP2;P2;SDS_P1;SDS_P2;PMS_P1;PMS_P2;Temp;Humidity;BMP_temperature;BMP_pressure;BME280_temperature;BME280_humidity;BME280_pressure;Samples;Min_cycle;Max_cycle;Signal;HPM_P1;HPM_P2
2023/10/21 00:01:30;;;;;;;13.65;4.15;;;;;;;17.65;43.63;94497.78;4964568;28;20224;-70
2023/10/21 00:03:55;;;;;;;8.90;3.47;;;;;;;17.66;43.65;94487.97;4988589;28;20219;-70
2023/10/21 00:06:21;;;;;;;9.60;4.00;;;;;;;17.74;43.58;94490.41;4982363;28;20231;-70
2023/10/21 00:08:46;;;;;;;8.38;3.95;;;;;;;17.77;43.80;94498.78;4985994;28;20219;-70
2023/10/21 00:11:12;;;;;;;13.68;3.67;;;;;;;17.68;44.04;94484.09;4983524;28;20176;-70
2023/10/21 00:13:38;;;;;;;8.40;4.03;;;;;;;17.66;44.05;94493.28;4970740;28;20219;-70
2023/10/21 00:16:04;;;;;;;7.22;3.78;;;;;;;17.15;45.18;94490.28;4987132;28;20231;-70
2023/10/21 00:18:29;;;;;;;9.63;4.10;;;;;;;17.34;44.85;94496.59;4971969;28;20297;-71
2023/10/21 00:20:55;;;;;;;11.38;4.20;;;;;;;17.40;44.91;94497.63;4968952;28;20312;-70
2023/10/21 00:23:21;;;;;;;8.70;3.95;;;;;;;16.87;46.19;94508.28;4965590;28;20628;-70
2023/10/21 00:25:48;;;;;;;11.93;4.32;;;;;;;17.05;45.94;94489.88;4982096;28;20208;-70
2023/10/21 00:28:13;;;;;;;8.38;4.55;;;;;;;17.17;45.70;94482.94;4964641;28;20239;-71
2023/10/21 00:30:39;;;;;;;7.68;4.18;;;;;;;17.19;45.87;94504.81;4973989;28;20259;-70
2023/10/21 00:33:04;;;;;;;12.07;4.45;;;;;;;16.88;46.57;94524.00;4972367;28;20224;-70
2023/10/21 00:35:31;;;;;;;7.47;4.50;;;;;;;17.06;46.28;94502.16;4969544;28;20192;-70
2023/10/21 00:37:57;;;;;;;7.90;4.05;;;;;;;17.10;46.26;94506.00;4964643;28;20275;-70
2023/10/21 00:40:23;;;;;;;10.13;4.45;;;;;;;17.14;46.39;94517.88;4958702;28;20611;-70
2023/10/21 00:42:48;;;;;;;9.18;4.40;;;;;;;17.14;46.05;94520.53;4981266;28;20229;-70
2023/10/21 00:45:14;;;;;;;8.88;4.43;;;;;;;17.18;46.01;94521.75;4954170;28;20232;-71
2023/10/21 00:47:40;;;;;;;11.43;4.88;;;;;;;17.15;46.17;94530.13;4953178;28;20228;-70
2023/10/21 00:50:07;;;;;;;9.88;4.60;;;;;;;16.57;47.83;94519.19;4967574;28;20196;-70
2023/10/21 00:52:41;;;;;;;6.32;4.15;;;;;;;16.66;47.59;94557.00;4972814;28;20283;-70
2023/10/21 00:55:09;;;;;;;10.10;4.88;;;;;;;16.50;47.66;94518.38;4971156;28;20219;-70
2023/10/21 00:57:36;;;;;;;15.38;5.35;;;;;;;16.84;46.79;94522.78;4971226;28;20319;-70
2023/10/21 01:00:03;;;;;;;8.02;4.70;;;;;;;16.98;46.65;94510.31;4984789;28;20248;-70
2023/10/21 01:02:31;;;;;;;8.13;4.78;;;;;;;16.90;47.17;94540.53;4970933;28;20227;-70
2023/10/21 01:04:58;;;;;;;9.45;4.72;;;;;;;16.48;48.15;94537.16;4981566;28;20232;-70
2023/10/21 01:07:24;;;;;;;8.65;4.88;;;;;;;16.72;47.13;94561.50;4987211;28;20309;-70
2023/10/21 01:09:50;;;;;;;10.93;5.05;;;;;;;16.52;48.03;94546.34;4985428;28;20227;-70
2023/10/21 01:12:15;;;;;;;13.07;5.30;;;;;;;16.57;48.10;94513.06;4970597;28;20247;-71
2023/10/21 01:14:41;;;;;;;11.13;4.75;;;;;;;16.79;47.33;94527.88;4968605;28;20231;-70
2023/10/21 01:17:08;;;;;;;7.90;4.60;;;;;;;16.78;47.48;94538.69;4969733;28;20547;-70
2023/10/21 01:19:33;;;;;;;7.80;4.55;;;;;;;16.87;47.30;94550.75;4970359;28;20235;-70
2023/10/21 01:21:59;;;;;;;8.27;4.90;;;;;;;16.46;47.86;94556.94;4962696;28;20220;-70
2023/10/21 01:24:24;;;;;;;13.10;4.82;;;;;;;16.62;47.51;94519.41;4959004;28;20316;-70
2023/10/21 01:26:49;;;;;;;8.75;4.63;;;;;;;16.79;47.16;94533.19;4967728;28;20227;-70
2023/10/21 01:29:15;;;;;;;9.45;5.30;;;;;;;16.62;47.87;94561.88;4965537;28;20217;-70
2023/10/21 01:31:40;;;;;;;7.53;4.70;;;;;;;16.20;48.81;94547.88;4965564;28;20227;-70
2023/10/21 01:34:07;;;;;;;11.15;5.10;;;;;;;16.37;48.39;94518.34;4968495;28;20236;-70
2023/10/21 01:36:32;;;;;;;9.05;4.88;;;;;;;16.53;47.86;94525.94;4968030;28;20288;-70
2023/10/21 01:38:59;;;;;;;11.38;5.35;;;;;;;16.65;47.90;94534.13;4967941;28;20303;-70
2023/10/21 01:41:24;;;;;;;10.20;4.45;;;;;;;16.69;47.70;94528.22;4969990;28;20189;-70
2023/10/21 01:43:50;;;;;;;7.38;4.70;;;;;;;16.69;47.61;94536.19;4965704;28;20180;-70
2023/10/21 01:46:15;;;;;;;7.32;4.75;;;;;;;16.72;47.77;94514.53;4969454;28;20240;-70
2023/10/21 01:48:41;;;;;;;10.00;5.07;;;;;;;16.57;48.41;94544.94;4978372;28;20228;-70
2023/10/21 01:51:06;;;;;;;9.93;5.10;;;;;;;16.47;48.14;94511.63;4981168;28;20229;-70
2023/10/21 01:53:32;;;;;;;10.70;5.30;;;;;;;16.66;47.88;94539.25;4978694;28;20814;-70
2023/10/21 01:56:03;;;;;;;13.75;5.07;;;;;;;16.58;48.34;94533.31;4970326;28;20244;-70
2023/10/21 01:58:31;;;;;;;8.95;5.22;;;;;;;16.64;48.11;94522.69;4968822;28;20322;-70
2023/10/21 02:00:57;;;;;;;8.90;5.03;;;;;;;16.44;48.63;94511.19;4967920;28;20225;-70
2023/10/21 02:03:24;;;;;;;10.57;5.15;;;;;;;16.09;49.59;94562.53;4968499;28;20263;-71
2023/10/21 02:05:50;;;;;;;11.70;5.18;;;;;;;16.23;49.67;94547.47;4956956;28;20247;-71
2023/10/21 02:08:15;;;;;;;9.13;4.57;;;;;;;16.26;48.78;94531.16;4973328;28;20273;-71
2023/10/21 02:10:41;;;;;;;10.05;5.15;;;;;;;16.23;49.56;94541.34;4971074;28;20224;-71
2023/10/21 02:13:06;;;;;;;10.35;5.03;;;;;;;16.14;49.73;94566.41;4968775;28;20216;-71
2023/10/21 02:15:36;;;;;;;9.50;5.25;;;;;;;15.95;50.08;94571.41;4973307;28;20230;-71
2023/10/21 02:18:01;;;;;;;8.20;4.82;;;;;;;16.06;49.72;94525.78;4985865;28;20216;-71
2023/10/21 02:20:27;;;;;;;10.90;5.45;;;;;;;16.17;49.49;94540.31;4972535;28;20196;-71
2023/10/21 02:22:52;;;;;;;10.13;4.93;;;;;;;16.26;49.49;94533.81;4973912;28;20188;-71
2023/10/21 02:25:19;;;;;;;10.60;5.15;;;;;;;16.28;49.78;94526.47;4984597;28;20225;-71
2023/10/21 02:27:44;;;;;;;8.32;4.72;;;;;;;16.11;49.78;94546.41;4973116;28;20235;-71
2023/10/21 02:30:13;;;;;;;9.80;4.28;;;;;;;16.16;49.38;94549.28;4957737;28;20227;-71
2023/10/21 02:32:42;;;;;;;8.98;4.80;;;;;;;16.35;49.11;94531.78;4987120;28;20228;-71
2023/10/21 02:35:08;;;;;;;10.02;4.90;;;;;;;16.32;48.78;94551.59;4970208;28;20227;-71
2023/10/21 02:37:34;;;;;;;8.85;5.15;;;;;;;15.95;49.89;94565.28;4972692;28;20235;-71
2023/10/21 02:39:59;;;;;;;6.57;4.53;;;;;;;15.99;49.90;94558.59;4982728;28;20212;-71
2023/10/21 02:42:24;;;;;;;9.88;4.68;;;;;;;16.08;49.58;94554.75;4968237;28;20310;-71
2023/10/21 02:44:53;;;;;;;10.38;4.97;;;;;;;16.12;49.50;94555.16;4952280;28;20247;-71
2023/10/21 02:47:19;;;;;;;7.53;4.60;;;;;;;16.20;49.44;94578.88;4962339;28;20275;-71
2023/10/21 02:49:44;;;;;;;10.63;4.60;;;;;;;15.95;49.67;94562.63;4982760;28;20236;-71
2023/10/21 02:52:09;;;;;;;8.27;4.43;;;;;;;16.11;49.06;94549.03;4968161;28;20259;-71
2023/10/21 02:54:35;;;;;;;9.05;4.68;;;;;;;16.22;48.76;94567.03;4972091;28;20220;-71
2023/10/21 02:57:00;;;;;;;9.70;4.53;;;;;;;16.25;48.66;94540.16;4972565;28;20535;-71
2023/10/21 02:59:26;;;;;;;9.25;4.90;;;;;;;16.31;48.65;94586.28;4982857;28;20283;-71
2023/10/21 03:01:52;;;;;;;8.63;4.40;;;;;;;16.05;49.08;94571.88;4968541;28;20188;-72
2023/10/21 03:04:18;;;;;;;9.10;4.30;;;;;;;16.16;49.30;94562.53;4969641;28;20228;-71
2023/10/21 03:06:43;;;;;;;7.15;4.32;;;;;;;16.05;49.51;94582.47;4971274;28;20231;-71
2023/10/21 03:09:09;;;;;;;8.63;4.50;;;;;;;15.98;49.81;94613.44;4969250;28;20220;-71
2023/10/21 03:11:34;;;;;;;11.23;4.35;;;;;;;15.91;50.11;94585.28;4976311;28;20199;-71
2023/10/21 03:14:00;;;;;;;7.85;4.22;;;;;;;16.03;49.60;94586.34;4965275;28;20198;-71
2023/10/21 03:16:25;;;;;;;9.55;4.85;;;;;;;16.15;49.34;94584.78;4965374;28;20220;-71
2023/10/21 03:18:51;;;;;;;10.05;3.95;;;;;;;15.93;49.84;94583.22;4982932;28;20274;-71
2023/10/21 03:21:17;;;;;;;11.57;5.28;;;;;;;16.01;49.97;94580.41;4967997;28;20255;-71
2023/10/21 03:23:42;;;;;;;6.18;4.25;;;;;;;16.00;49.80;94561.03;4969270;28;20270;-71
2023/10/21 03:26:08;;;;;;;11.13;4.40;;;;;;;15.93;50.09;94599.13;4981461;28;20212;-71
2023/10/21 03:28:34;;;;;;;11.63;4.82;;;;;;;15.35;51.65;94608.06;4970033;28;20288;-71
2023/10/21 03:31:03;;;;;;;10.18;4.47;;;;;;;15.48;51.13;94585.34;4981684;28;20272;-71
2023/10/21 03:33:29;;;;;;;7.40;4.15;;;;;;;15.73;50.44;94573.31;4970441;28;20240;-71
2023/10/21 03:36:00;;;;;;;8.35;4.85;;;;;;;15.87;50.21;94580.34;4980853;28;20239;-71
2023/10/21 03:38:25;;;;;;;8.90;5.13;;;;;;;15.95;50.06;94578.53;4961103;28;20215;-69
2023/10/21 03:40:58;;;;;;;8.98;5.03;;;;;;;16.01;50.02;94588.38;4967797;28;20238;-71
2023/10/21 03:43:25;;;;;;;8.45;4.80;;;;;;;16.01;49.76;94591.84;4949454;28;20228;-70
2023/10/21 03:45:52;;;;;;;10.52;4.70;;;;;;;15.96;49.75;94581.00;4964625;28;20240;-70
2023/10/21 03:48:18;;;;;;;6.13;4.40;;;;;;;15.99;49.80;94585.91;4963029;28;20226;-70
2023/10/21 03:50:43;;;;;;;9.05;4.60;;;;;;;15.91;49.90;94564.06;4963664;28;20244;-70
2023/10/21 03:53:09;;;;;;;6.60;4.32;;;;;;;15.95;49.95;94562.63;4961222;28;20212;-71
2023/10/21 03:55:34;;;;;;;9.95;5.00;;;;;;;15.74;50.74;94558.22;4966524;28;20217;-70
2023/10/21 03:57:59;;;;;;;10.77;5.50;;;;;;;15.85;50.15;94549.72;4964997;28;20232;-70
2023/10/21 04:00:25;;;;;;;15.15;5.07;;;;;;;15.56;51.31;94579.91;4966845;28;20229;-71
2023/10/21 04:02:50;;;;;;;10.23;4.65;;;;;;;15.64;50.99;94585.06;4986945;28;20223;-71
2023/10/21 04:05:17;;;;;;;11.45;4.65;;;;;;;15.60;51.28;94567.91;4966829;28;20208;-71
2023/10/21 04:07:44;;;;;;;10.07;4.70;;;;;;;15.57;51.10;94570.94;4986792;28;20227;-72
2023/10/21 04:10:10;;;;;;;9.90;5.10;;;;;;;15.77;50.53;94587.84;4969310;28;20224;-73
2023/10/21 04:12:35;;;;;;;8.52;4.75;;;;;;;15.55;50.93;94565.00;4982390;28;20239;-70
2023/10/21 04:15:01;;;;;;;8.57;4.50;;;;;;;15.62;50.87;94565.88;4970924;28;20227;-71
2023/10/21 04:17:27;;;;;;;9.50;5.05;;;;;;;15.12;52.11;94581.78;4967264;28;20184;-70
2023/10/21 04:19:52;;;;;;;14.38;4.57;;;;;;;14.90;52.53;94567.75;4984976;28;20200;-71
2023/10/21 04:22:18;;;;;;;5.85;4.35;;;;;;;15.17;52.35;94567.97;4965856;28;20232;-70
2023/10/21 04:24:43;;;;;;;9.25;4.70;;;;;;;15.32;51.86;94576.69;4980113;28;20371;-72
2023/10/21 04:27:08;;;;;;;11.05;5.35;;;;;;;15.46;51.42;94568.81;4963918;28;20216;-71
2023/10/21 04:29:34;;;;;;;10.95;4.90;;;;;;;14.98;52.91;94583.50;4952886;28;20676;-71
2023/10/21 04:31:59;;;;;;;9.23;5.32;;;;;;;15.05;52.87;94585.38;4969014;28;20192;-71
2023/10/21 04:34:25;;;;;;;14.48;4.55;;;;;;;15.17;52.46;94589.97;4967948;28;20245;-70
2023/10/21 04:36:50;;;;;;;11.90;4.40;;;;;;;15.09;52.41;94571.56;4975754;28;20227;-70
2023/10/21 04:39:16;;;;;;;7.18;4.38;;;;;;;15.30;51.61;94583.97;4983678;28;20291;-70
2023/10/21 04:41:42;;;;;;;11.43;5.35;;;;;;;15.40;51.46;94604.84;4982247;28;20231;-71
2023/10/21 04:44:09;;;;;;;6.30;4.30;;;;;;;15.46;51.19;94598.78;4965116;28;20184;-71
2023/10/21 04:46:34;;;;;;;11.60;5.50;;;;;;;15.49;51.33;94602.88;4966766;28;20323;-72
2023/10/21 04:49:00;;;;;;;10.05;4.82;;;;;;;15.51;51.23;94585.78;4968739;28;20287;-71
2023/10/21 04:51:25;;;;;;;7.90;4.90;;;;;;;15.42;51.81;94616.91;4964784;28;20260;-70
2023/10/21 04:53:51;;;;;;;11.23;5.43;;;;;;;14.94;53.13;94626.41;4967600;28;20212;-71
2023/10/21 04:56:17;;;;;;;7.65;4.32;;;;;;;15.00;52.59;94601.84;4984993;28;20188;-71
2023/10/21 04:58:42;;;;;;;15.15;5.10;;;;;;;15.18;52.36;94611.97;4964045;28;20229;-71
2023/10/21 05:01:10;;;;;;;8.02;4.60;;;;;;;15.01;52.77;94637.91;4948181;28;20307;-70
2023/10/21 05:03:36;;;;;;;11.55;5.53;;;;;;;14.96;52.74;94635.81;4957120;28;20217;-72
2023/10/21 05:06:04;;;;;;;8.27;5.05;;;;;;;15.02;52.63;94625.47;4958252;28;20227;-72
2023/10/21 05:08:30;;;;;;;9.90;5.15;;;;;;;15.13;52.23;94630.25;4970227;28;20219;-72
2023/10/21 05:10:56;;;;;;;10.65;5.65;;;;;;;15.27;51.91;94621.44;4985808;28;20209;-71
2023/10/21 05:13:21;;;;;;;15.40;5.40;;;;;;;15.35;52.07;94660.25;4961787;28;20224;-71
2023/10/21 05:15:46;;;;;;;14.27;5.78;;;;;;;15.29;51.86;94671.56;4963879;28;20216;-71
2023/10/21 05:18:12;;;;;;;14.40;6.32;;;;;;;15.04;52.60;94674.59;4966308;28;20225;-71
2023/10/21 05:20:37;;;;;;;12.63;6.25;;;;;;;15.27;52.33;94669.13;4950880;28;20521;-71
2023/10/21 05:23:03;;;;;;;12.20;5.80;;;;;;;15.35;51.94;94652.28;4952267;28;20184;-71
2023/10/21 05:25:28;;;;;;;13.13;6.65;;;;;;;15.57;51.92;94669.81;4969134;28;20224;-71
2023/10/21 05:27:54;;;;;;;17.88;6.40;;;;;;;15.26;52.33;94675.41;4950540;28;20250;-71
2023/10/21 05:30:19;;;;;;;13.82;6.80;;;;;;;15.19;52.29;94667.44;4957196;28;20225;-72
2023/10/21 05:32:44;;;;;;;18.02;6.45;;;;;;;15.39;51.74;94662.31;4954575;28;20224;-72
2023/10/21 05:35:10;;;;;;;13.10;5.90;;;;;;;15.18;52.46;94668.44;4972246;28;20249;-71
2023/10/21 05:37:35;;;;;;;13.80;6.53;;;;;;;15.41;51.52;94694.72;4972325;28;20243;-71
2023/10/21 05:40:05;;;;;;;14.48;5.25;;;;;;;15.31;51.79;94680.97;4991268;28;20227;-70
2023/10/21 05:42:31;;;;;;;14.18;6.25;;;;;;;15.57;50.91;94675.09;4983196;28;20239;-71
2023/10/21 05:44:56;;;;;;;9.32;5.30;;;;;;;15.58;51.26;94684.72;4975190;28;20250;-71
2023/10/21 05:47:22;;;;;;;13.15;5.57;;;;;;;15.77;50.48;94691.22;4985687;28;20191;-71
2023/10/21 05:49:47;;;;;;;16.13;5.65;;;;;;;15.84;50.21;94680.66;4973911;28;20271;-72
2023/10/21 05:52:14;;;;;;;10.75;5.68;;;;;;;15.99;50.13;94704.44;4973479;28;20231;-72
2023/10/21 05:54:40;;;;;;;15.48;5.88;;;;;;;15.94;50.31;94689.09;4968682;28;20220;-71
2023/10/21 05:57:06;;;;;;;15.23;6.13;;;;;;;16.10;50.31;94695.94;4954370;28;20212;-72
2023/10/21 05:59:31;;;;;;;12.80;5.70;;;;;;;16.12;50.45;94711.66;4984889;28;20189;-74
2023/10/21 06:01:57;;;;;;;12.38;6.32;;;;;;;15.84;50.75;94718.59;4973169;28;20191;-72
2023/10/21 06:04:22;;;;;;;12.40;5.85;;;;;;;16.03;50.32;94714.44;4968414;28;20231;-71
2023/10/21 06:06:49;;;;;;;16.50;5.97;;;;;;;16.26;49.97;94695.63;4986185;28;20231;-71
2023/10/21 06:09:15;;;;;;;15.95;6.03;;;;;;;16.25;50.46;94725.84;4971363;28;20235;-75
2023/10/21 06:11:40;;;;;;;15.93;6.28;;;;;;;16.18;50.09;94713.56;4972577;28;20216;-71
2023/10/21 06:14:06;;;;;;;12.43;5.65;;;;;;;16.35;49.62;94706.91;4977082;28;20192;-71
2023/10/21 06:16:31;;;;;;;9.38;5.47;;;;;;;16.42;49.07;94704.31;4975179;28;20224;-72
2023/10/21 06:18:57;;;;;;;10.10;5.50;;;;;;;16.57;49.03;94718.25;4971684;28;20224;-73
2023/10/21 06:21:22;;;;;;;12.52;5.63;;;;;;;16.72;48.69;94724.28;4995175;28;20252;-71
2023/10/21 06:23:48;;;;;;;17.90;7.80;;;;;;;16.70;49.33;94720.97;4971406;28;20224;-72
2023/10/21 06:26:13;;;;;;;16.02;6.35;;;;;;;16.58;49.18;94711.97;4967022;28;20208;-71
2023/10/21 06:28:39;;;;;;;10.93;5.88;;;;;;;16.76;48.98;94700.81;4968449;28;20279;-71
2023/10/21 06:31:05;;;;;;;14.32;6.32;;;;;;;16.96;49.29;94720.31;4972599;28;20284;-72
2023/10/21 06:33:30;;;;;;;11.48;6.32;;;;;;;16.96;48.94;94728.28;4973396;28;20243;-72
2023/10/21 06:35:56;;;;;;;12.98;6.20;;;;;;;17.10;48.15;94693.81;4983996;28;20283;-72
2023/10/21 06:38:21;;;;;;;13.82;6.63;;;;;;;17.25;49.37;94709.59;4972608;28;20188;-72
2023/10/21 06:40:47;;;;;;;15.25;6.13;;;;;;;17.20;48.95;94721.63;4966553;28;20196;-72
2023/10/21 06:43:12;;;;;;;16.50;6.43;;;;;;;17.33;48.32;94730.69;4969728;28;20220;-71
2023/10/21 06:45:38;;;;;;;11.55;5.55;;;;;;;17.45;47.92;94715.75;4973351;28;20311;-72
2023/10/21 06:48:04;;;;;;;14.40;5.78;;;;;;;17.57;47.66;94719.47;4965972;28;20227;-70
2023/10/21 06:50:31;;;;;;;11.63;5.60;;;;;;;17.60;47.38;94712.94;4966811;28;20215;-71
2023/10/21 06:52:57;;;;;;;9.52;5.90;;;;;;;17.66;47.45;94703.34;4965623;28;20283;-71
2023/10/21 06:55:22;;;;;;;10.70;5.88;;;;;;;17.76;47.70;94728.50;4963529;28;20358;-71
2023/10/21 06:57:50;;;;;;;12.10;5.22;;;;;;;17.75;46.63;94679.00;4965651;28;20224;-71
2023/10/21 07:00:16;;;;;;;12.98;5.75;;;;;;;17.78;47.52;94707.03;4966073;28;20238;-72
2023/10/21 07:02:41;;;;;;;11.77;5.90;;;;;;;17.91;47.49;94715.06;4973433;28;20223;-71
2023/10/21 07:05:09;;;;;;;10.25;5.70;;;;;;;18.01;46.81;94714.63;4973602;28;20295;-71
2023/10/21 07:07:37;;;;;;;10.90;6.05;;;;;;;17.90;47.86;94713.41;4968579;28;20246;-71
2023/10/21 07:10:03;;;;;;;10.82;5.85;;;;;;;17.97;46.78;94716.06;4958802;28;20232;-71
2023/10/21 07:12:29;;;;;;;14.80;6.40;;;;;;;18.22;45.91;94705.63;4957616;28;20223;-71
2023/10/21 07:14:54;;;;;;;13.70;5.28;;;;;;;18.24;45.82;94704.38;4974331;28;20228;-72
2023/10/21 07:17:19;;;;;;;10.90;6.38;;;;;;;18.18;45.90;94709.72;4974899;28;20199;-71
2023/10/21 07:19:45;;;;;;;10.40;5.32;;;;;;;18.29;45.60;94693.13;4984943;28;20223;-76
2023/10/21 07:22:11;;;;;;;9.07;5.30;;;;;;;18.41;45.00;94715.41;4979129;28;20228;-71
2023/10/21 07:24:36;;;;;;;10.00;4.78;;;;;;;18.42;44.51;94697.63;4980525;28;20224;-73
2023/10/21 07:27:02;;;;;;;9.75;5.80;;;;;;;18.38;44.43;94713.16;4969480;28;20222;-72
2023/10/21 07:29:27;;;;;;;11.40;4.93;;;;;;;18.52;44.28;94729.94;4953906;28;20199;-71
2023/10/21 07:31:53;;;;;;;13.80;5.60;;;;;;;18.53;44.05;94702.28;4973817;28;20184;-72
2023/10/21 07:34:18;;;;;;;10.93;4.82;;;;;;;18.63;44.16;94700.00;4975258;28;20243;-72
2023/10/21 07:36:44;;;;;;;9.73;5.07;;;;;;;18.52;44.47;94696.16;4991449;28;20721;-72
2023/10/21 07:39:09;;;;;;;10.52;5.57;;;;;;;18.72;44.02;94705.94;4980334;28;20224;-72
2023/10/21 07:41:35;;;;;;;12.77;5.82;;;;;;;18.89;44.01;94691.13;4969660;28;20192;-71
2023/10/21 07:44:00;;;;;;;9.73;5.75;;;;;;;18.75;44.29;94700.22;4980919;28;20188;-73
2023/10/21 07:46:26;;;;;;;10.93;5.50;;;;;;;18.94;43.89;94701.97;4972488;28;20224;-71
2023/10/21 07:48:51;;;;;;;9.27;5.10;;;;;;;18.97;43.79;94724.72;4971331;28;20224;-72
2023/10/21 07:51:18;;;;;;;13.15;5.22;;;;;;;19.06;43.57;94710.13;4971527;28;20231;-71
2023/10/21 07:53:44;;;;;;;10.13;5.32;;;;;;;19.21;43.31;94722.38;4987485;28;20224;-72
2023/10/21 07:56:09;;;;;;;8.05;4.80;;;;;;;19.47;42.34;94718.75;4986555;28;20197;-71
2023/10/21 07:58:35;;;;;;;11.55;5.35;;;;;;;19.31;42.95;94726.22;4971236;28;20251;-71
2023/10/21 08:01:02;;;;;;;11.45;5.05;;;;;;;19.36;43.15;94717.59;4985194;28;20248;-72
2023/10/21 08:03:27;;;;;;;15.25;5.85;;;;;;;19.48;42.86;94725.72;4970279;28;20307;-72
2023/10/21 08:05:53;;;;;;;12.77;5.90;;;;;;;19.57;42.81;94697.78;4971908;28;20327;-70
2023/10/21 08:08:18;;;;;;;11.95;6.03;;;;;;;19.45;42.96;94699.47;4984717;28;20267;-72
2023/10/21 08:10:44;;;;;;;11.88;6.50;;;;;;;19.50;43.02;94716.47;4973373;28;20219;-72
2023/10/21 08:13:09;;;;;;;9.93;6.50;;;;;;;19.63;43.07;94699.56;4970029;28;20224;-72
2023/10/21 08:15:35;;;;;;;9.93;6.22;;;;;;;19.74;42.93;94714.91;4968087;28;20247;-71
2023/10/21 08:18:00;;;;;;;10.80;5.72;;;;;;;19.86;42.95;94701.72;4953116;28;20221;-70
2023/10/21 08:20:26;;;;;;;13.40;5.55;;;;;;;19.92;42.10;94700.00;4954732;28;20659;-72
2023/10/21 08:22:52;;;;;;;10.10;4.70;;;;;;;20.04;42.07;94698.25;4969707;28;20185;-72
2023/10/21 08:25:18;;;;;;;8.88;4.68;;;;;;;20.10;42.04;94701.91;4986375;28;20235;-72
2023/10/21 08:27:43;;;;;;;8.30;4.97;;;;;;;20.17;42.06;94708.81;4973620;28;20224;-73
2023/10/21 08:30:09;;;;;;;13.57;5.28;;;;;;;20.27;41.80;94697.66;4970815;28;20234;-71
2023/10/21 08:32:35;;;;;;;14.50;4.63;;;;;;;20.36;42.10;94700.84;4960891;28;20192;-71
2023/10/21 08:35:01;;;;;;;10.38;4.85;;;;;;;20.44;42.07;94696.03;4968199;28;20224;-72
2023/10/21 08:37:26;;;;;;;12.07;5.32;;;;;;;20.54;41.82;94692.09;4964502;28;20225;-71
2023/10/21 08:39:52;;;;;;;13.57;5.28;;;;;;;20.56;40.98;94685.50;4970263;28;20656;-71
2023/10/21 08:42:18;;;;;;;7.13;4.57;;;;;;;20.72;40.93;94701.97;4963896;28;20228;-72
2023/10/21 08:44:48;;;;;;;8.45;4.35;;;;;;;20.85;40.35;94685.78;4963866;28;20216;-71
2023/10/21 08:47:16;;;;;;;9.48;4.43;;;;;;;20.90;40.45;94668.06;4986665;28;20176;-72
2023/10/21 08:49:45;;;;;;;10.18;4.47;;;;;;;21.01;40.22;94663.81;4982475;28;20242;-74
2023/10/21 08:52:13;;;;;;;11.77;4.80;;;;;;;21.13;39.82;94691.41;4979361;28;20216;-72
2023/10/21 08:54:41;;;;;;;9.75;5.00;;;;;;;21.27;39.42;94699.25;4974508;28;20228;-71
2023/10/21 08:57:07;;;;;;;11.52;4.95;;;;;;;21.35;38.99;94686.38;4965635;28;20227;-71
2023/10/21 08:59:33;;;;;;;9.77;4.00;;;;;;;21.49;38.23;94676.34;4971847;28;20184;-71
2023/10/21 09:01:58;;;;;;;11.02;4.35;;;;;;;21.58;38.02;94671.50;4965666;28;20189;-70
2023/10/21 09:04:24;;;;;;;11.13;3.92;;;;;;;21.76;36.47;94679.44;4970005;28;20224;-74
2023/10/21 09:07:00;;;;;;;10.85;4.32;;;;;;;21.89;36.55;94688.31;4958199;28;20283;-72
2023/10/21 09:09:29;;;;;;;9.45;4.05;;;;;;;22.00;35.54;94674.94;4980310;28;20232;-72
2023/10/21 09:12:10;;;;;;;8.57;3.80;;;;;;;22.20;34.53;94660.44;4963391;28;20222;-72
2023/10/21 09:14:57;;;;;;;9.75;4.03;;;;;;;22.37;34.03;94666.75;4955971;28;20200;-71
2023/10/21 09:17:35;;;;;;;10.90;3.40;;;;;;;22.59;31.37;94661.59;4968092;28;20246;-71
2023/10/21 09:20:11;;;;;;;7.47;3.40;;;;;;;22.71;30.83;94674.97;4971465;28;20185;-72
2023/10/21 09:22:38;;;;;;;8.48;3.40;;;;;;;22.75;30.83;94669.94;4969721;28;20653;-71
2023/10/21 09:25:20;;;;;;;8.73;3.50;;;;;;;22.82;31.12;94665.25;4975217;28;20286;-72
2023/10/21 09:27:55;;;;;;;9.50;3.55;;;;;;;22.99;30.68;94676.94;4972490;28;20227;-74
2023/10/21 09:30:28;;;;;;;8.45;3.67;;;;;;;23.08;30.42;94690.78;4990254;28;20226;-71
2023/10/21 09:33:05;;;;;;;8.63;3.75;;;;;;;23.17;29.47;94661.69;4967612;28;20216;-71
2023/10/21 09:35:32;;;;;;;10.60;3.20;;;;;;;23.27;28.09;94632.41;4986300;28;20208;-72
2023/10/21 09:38:13;;;;;;;12.15;3.75;;;;;;;23.38;28.37;94650.31;4970204;28;20180;-71
2023/10/21 09:40:39;;;;;;;6.82;2.72;;;;;;;23.55;27.52;94653.03;4968396;28;20220;-71
2023/10/21 09:43:07;;;;;;;11.65;3.15;;;;;;;23.55;27.44;94637.75;4967029;28;20225;-74
2023/10/21 09:45:34;;;;;;;8.88;3.33;;;;;;;23.68;27.31;94635.78;4965599;28;20474;-73
2023/10/21 09:48:05;;;;;;;10.20;3.90;;;;;;;23.86;26.90;94632.09;4964025;28;20217;-72
2023/10/21 09:50:33;;;;;;;9.70;4.50;;;;;;;23.88;27.21;94621.94;4965289;28;20212;-72
2023/10/21 09:53:15;;;;;;;11.88;3.47;;;;;;;24.01;27.19;94626.97;4969837;28;20185;-73
2023/10/21 09:55:41;;;;;;;11.57;3.72;;;;;;;24.18;26.39;94622.41;4992766;28;20308;-71
2023/10/21 09:58:08;;;;;;;9.35;3.67;;;;;;;24.32;26.55;94627.44;4969141;28;20308;-72
2023/10/21 10:00:38;;;;;;;10.02;3.70;;;;;;;24.40;25.40;94646.66;4968523;28;20232;-73
2023/10/21 10:03:05;;;;;;;11.50;3.90;;;;;;;24.46;25.30;94596.50;4973457;28;20217;-73
2023/10/21 10:05:30;;;;;;;10.80;3.75;;;;;;;24.61;24.80;94603.94;4973320;28;20219;-72
2023/10/21 10:07:56;;;;;;;15.65;3.75;;;;;;;24.75;23.55;94626.72;4969824;28;20188;-72
2023/10/21 10:10:25;;;;;;;16.95;3.45;;;;;;;24.82;23.26;94629.22;4970030;28;20220;-72
2023/10/21 10:13:09;;;;;;;10.95;3.13;;;;;;;25.04;22.21;94608.47;4966187;28;20235;-72
2023/10/21 10:15:35;;;;;;;10.65;3.47;;;;;;;25.08;22.95;94584.59;4980672;28;20308;-71
2023/10/21 10:18:03;;;;;;;9.93;3.28;;;;;;;25.10;23.12;94577.09;4972379;28;20228;-71
2023/10/21 10:20:29;;;;;;;16.50;4.30;;;;;;;25.18;23.22;94595.50;4955376;28;20196;-71
2023/10/21 10:23:13;;;;;;;15.57;3.88;;;;;;;25.36;22.88;94594.31;4969372;28;20300;-72
2023/10/21 10:25:42;;;;;;;13.75;3.90;;;;;;;25.54;22.26;94587.75;4985916;28;20232;-74
2023/10/21 10:28:09;;;;;;;15.38;3.08;;;;;;;25.68;22.11;94607.00;4971127;28;20235;-71
2023/10/21 10:30:37;;;;;;;13.00;3.28;;;;;;;25.72;22.11;94590.06;4964296;28;20265;-72
2023/10/21 10:33:08;;;;;;;17.73;3.92;;;;;;;25.81;21.55;94598.50;4978843;28;20227;-74
2023/10/21 10:35:42;;;;;;;10.05;3.47;;;;;;;26.01;20.64;94559.31;4970271;28;20175;-72
2023/10/21 10:38:24;;;;;;;16.50;3.63;;;;;;;26.00;21.52;94598.13;4972186;28;20215;-72
2023/10/21 10:41:14;;;;;;;12.70;3.47;;;;;;;25.95;21.63;94585.44;4968040;28;20220;-72
2023/10/21 10:43:45;;;;;;;12.38;3.47;;;;;;;26.07;21.53;94590.66;4967035;28;20225;-73
2023/10/21 10:46:24;;;;;;;11.82;3.40;;;;;;;26.29;20.83;94599.41;4984003;28;20239;-71
2023/10/21 10:48:50;;;;;;;7.53;3.50;;;;;;;26.47;20.99;94586.59;4970255;28;20282;-71
2023/10/21 10:51:17;;;;;;;18.33;3.55;;;;;;;26.54;20.57;94611.44;4953581;28;20224;-71
2023/10/21 10:53:48;;;;;;;15.15;3.97;;;;;;;26.60;19.83;94615.81;4971653;28;20254;-72
2023/10/21 10:56:25;;;;;;;15.48;3.30;;;;;;;26.71;19.77;94611.28;4964956;28;20243;-72
2023/10/21 10:58:52;;;;;;;15.25;4.45;;;;;;;26.75;20.19;94588.88;5003766;28;20211;-72
2023/10/21 11:01:25;;;;;;;12.82;3.88;;;;;;;26.67;20.19;94600.19;4967289;28;20251;-71
2023/10/21 11:04:02;;;;;;;17.40;3.67;;;;;;;26.65;20.71;94572.69;4982696;28;20220;-72
2023/10/21 11:06:37;;;;;;;17.38;3.50;;;;;;;26.72;20.68;94581.31;4954910;28;20330;-71
2023/10/21 11:09:08;;;;;;;11.93;3.33;;;;;;;26.82;20.01;94580.56;4980002;28;20308;-71
2023/10/21 11:11:54;;;;;;;12.43;3.85;;;;;;;26.92;20.42;94580.59;4970031;28;20199;-71
2023/10/21 11:14:21;;;;;;;14.25;3.10;;;;;;;26.98;20.11;94600.31;4983036;28;20216;-71
2023/10/21 11:16:49;;;;;;;10.07;3.72;;;;;;;27.26;19.76;94601.75;4975679;28;20196;-71
2023/10/21 11:19:15;;;;;;;11.73;3.65;;;;;;;27.29;20.81;94593.13;4966694;28;20240;-72
2023/10/21 11:21:59;;;;;;;15.07;3.58;;;;;;;27.42;20.50;94589.13;4993560;28;20220;-71
2023/10/21 11:24:26;;;;;;;13.68;3.38;;;;;;;27.48;19.73;94585.38;4981466;28;20252;-72
2023/10/21 11:26:52;;;;;;;15.52;3.42;;;;;;;27.50;19.95;94591.28;4970007;28;20257;-70
2023/10/21 11:29:18;;;;;;;10.93;3.60;;;;;;;27.67;18.85;94599.16;4967828;28;20252;-71